createdAt,value
2019-05-06T00:00:25.645Z,13.40
2019-05-06T00:02:54.758Z,16.27
2019-05-06T00:05:25.511Z,10.93
2019-05-06T00:07:54.755Z,20.33
2019-05-06T00:10:33.968Z,13.83
2019-05-06T00:13:02.001Z,12.37
2019-05-06T00:15:31.050Z,14.10
2019-05-06T00:17:59.854Z,11.47
2019-05-06T00:20:28.646Z,11.97
2019-05-06T00:23:05.016Z,18.50
2019-05-06T00:25:44.468Z,14.87
2019-05-06T00:28:24.441Z,14.87
2019-05-06T00:31:09.577Z,16.13
2019-05-06T00:33:28.441Z,14.83
2019-05-06T00:36:00.213Z,14.80
2019-05-06T00:38:27.564Z,13.77
2019-05-06T00:40:57.964Z,15.63
2019-05-06T00:43:26.766Z,17.27
2019-05-06T00:45:55.524Z,17.33
2019-05-06T00:48:24.505Z,9.10
2019-05-06T00:50:53.634Z,13.93
2019-05-06T00:53:24.144Z,16.73
2019-05-06T00:55:53.792Z,16.27
2019-05-06T00:58:23.811Z,18.40
2019-05-06T01:00:53.778Z,17.50
2019-05-06T01:03:23.911Z,11.67
2019-05-06T01:05:54.263Z,15.73
2019-05-06T01:08:24.067Z,13.50
2019-05-06T01:10:54.477Z,13.57
2019-05-06T01:13:41.140Z,11.60
2019-05-06T01:16:11.550Z,12.97
2019-05-06T01:18:40.367Z,15.37
2019-05-06T01:21:11.842Z,14.43
2019-05-06T01:23:44.554Z,13.17
2019-05-06T01:26:15.293Z,12.27
2019-05-06T01:28:44.852Z,12.23
2019-05-06T01:31:14.149Z,15.23
2019-05-06T01:33:45.056Z,12.40
2019-05-06T01:36:15.295Z,14.57
2019-05-06T01:38:46.098Z,10.63
2019-05-06T01:41:16.456Z,10.27
2019-05-06T01:43:46.046Z,11.40
2019-05-06T01:46:14.810Z,12.17
2019-05-06T01:48:49.740Z,9.93
2019-05-06T01:51:20.217Z,15.97
2019-05-06T01:53:49.687Z,11.27
2019-05-06T01:56:18.595Z,9.97
2019-05-06T01:58:47.351Z,11.40
2019-05-06T02:01:16.227Z,11.43
2019-05-06T02:03:44.993Z,12.57
2019-05-06T02:06:14.249Z,18.87
2019-05-06T02:08:44.711Z,11.13
2019-05-06T02:11:14.827Z,14.37
2019-05-06T02:13:44.445Z,12.90
2019-05-06T02:16:14.666Z,11.97
2019-05-06T02:18:44.791Z,18.67
2019-05-06T02:21:15.469Z,11.00
2019-05-06T02:23:57.745Z,11.93
2019-05-06T02:26:26.505Z,11.10
2019-05-06T02:28:56.952Z,15.43
2019-05-06T02:31:45.994Z,14.07
2019-05-06T02:34:36.503Z,17.13
2019-05-06T02:37:14.659Z,12.43
2019-05-06T02:39:43.774Z,15.00
2019-05-06T02:42:13.191Z,12.33
2019-05-06T02:44:44.196Z,9.50
2019-05-06T02:47:14.108Z,14.30
2019-05-06T02:49:44.540Z,11.00
2019-05-06T02:52:14.006Z,13.53
2019-05-06T02:54:43.108Z,13.30
2019-05-06T02:57:13.221Z,12.23
2019-05-06T02:59:44.174Z,13.37
2019-05-06T03:02:14.005Z,9.83
2019-05-06T03:04:43.691Z,10.33
2019-05-06T03:07:14.598Z,12.87
2019-05-06T03:09:44.482Z,15.13
2019-05-06T03:12:13.888Z,15.00
2019-05-06T03:14:43.632Z,11.70
2019-05-06T03:17:13.991Z,13.03
2019-05-06T03:19:46.047Z,17.80
2019-05-06T03:22:27.841Z,15.13
2019-05-06T03:24:57.728Z,14.70
2019-05-06T03:27:26.532Z,13.70
2019-05-06T03:29:55.235Z,15.47
2019-05-06T03:32:30.464Z,13.57
2019-05-06T03:35:16.541Z,13.13
2019-05-06T03:37:24.875Z,16.30
2019-05-06T03:39:53.633Z,13.37
2019-05-06T03:42:23.095Z,11.97
2019-05-06T03:44:53.832Z,14.70
2019-05-06T03:47:24.327Z,13.07
2019-05-06T03:49:54.493Z,10.87
2019-05-06T03:52:25.027Z,12.20
2019-05-06T03:54:54.528Z,12.73
2019-05-06T03:57:24.067Z,14.87
2019-05-06T03:59:53.381Z,16.47
2019-05-06T04:02:24.115Z,17.43
2019-05-06T04:04:55.876Z,12.77
2019-05-06T04:07:23.773Z,13.80
2019-05-06T04:09:53.595Z,11.17
2019-05-06T04:12:23.867Z,15.57
2019-05-06T04:14:54.159Z,16.33
2019-05-06T04:17:43.984Z,12.03
2019-05-06T04:20:16.946Z,12.43
2019-05-06T04:22:47.751Z,15.00
2019-05-06T04:25:43.527Z,13.00
2019-05-06T04:28:14.094Z,13.10
2019-05-06T04:30:43.198Z,11.87
2019-05-06T04:33:16.919Z,11.17
2019-05-06T04:35:43.209Z,13.70
2019-05-06T04:38:13.846Z,10.20
2019-05-06T04:40:43.964Z,18.07
2019-05-06T04:43:13.580Z,13.50
2019-05-06T04:45:43.253Z,9.60
2019-05-06T04:48:14.356Z,11.27
2019-05-06T04:50:44.417Z,10.67
2019-05-06T04:53:14.071Z,12.27
2019-05-06T04:55:43.894Z,11.10
2019-05-06T04:58:13.534Z,13.27
2019-05-06T05:00:44.563Z,14.67
2019-05-06T05:03:14.144Z,10.13
2019-05-06T05:05:44.807Z,12.53
2019-05-06T05:08:14.257Z,10.73
2019-05-06T05:10:56.885Z,11.23
2019-05-06T05:13:27.294Z,14.60
2019-05-06T05:16:06.230Z,11.63
2019-05-06T05:18:37.157Z,11.30
2019-05-06T05:21:05.948Z,14.10
2019-05-06T05:23:34.750Z,10.60
2019-05-06T05:26:03.814Z,11.03
2019-05-06T05:28:32.760Z,13.17
2019-05-06T05:31:03.042Z,13.77
2019-05-06T05:33:32.721Z,15.77
2019-05-06T05:36:02.128Z,9.77
2019-05-06T05:38:32.074Z,19.20
2019-05-06T05:41:03.083Z,10.07
2019-05-06T05:43:33.486Z,11.17
2019-05-06T05:46:03.111Z,13.70
2019-05-06T05:48:36.256Z,13.10
2019-05-06T05:51:05.016Z,17.50
2019-05-06T05:53:34.019Z,11.13
2019-05-06T05:56:02.822Z,15.40
2019-05-06T05:58:33.030Z,11.97
2019-05-06T06:01:04.192Z,17.80
2019-05-06T06:03:32.809Z,13.00
2019-05-06T06:06:03.061Z,14.40
2019-05-06T06:08:32.333Z,13.87
2019-05-06T06:11:05.237Z,14.27
2019-05-06T06:13:34.001Z,11.93
2019-05-06T06:16:04.538Z,11.43
2019-05-06T06:18:44.408Z,11.73
2019-05-06T06:21:27.090Z,12.67
2019-05-06T06:23:52.917Z,12.57
2019-05-06T06:26:22.708Z,12.10
2019-05-06T06:28:52.265Z,13.37
2019-05-06T06:31:33.194Z,11.93
2019-05-06T06:34:03.737Z,10.00
2019-05-06T06:36:42.870Z,8.30
2019-05-06T06:39:16.278Z,15.13
2019-05-06T06:41:45.180Z,12.77
2019-05-06T06:44:22.133Z,12.50
2019-05-06T06:46:52.400Z,13.87
2019-05-06T06:49:22.228Z,11.03
2019-05-06T06:51:53.179Z,11.90
2019-05-06T06:54:22.851Z,11.17
2019-05-06T06:57:05.067Z,8.67
2019-05-06T06:59:25.767Z,13.07
2019-05-06T07:01:56.170Z,12.20
2019-05-06T07:04:28.686Z,12.00
2019-05-06T07:06:59.144Z,10.53
2019-05-06T07:09:29.715Z,10.37
2019-05-06T07:11:58.286Z,7.87
2019-05-06T07:14:27.056Z,11.30
2019-05-06T07:16:55.786Z,9.03
2019-05-06T07:19:28.969Z,9.20
2019-05-06T07:21:58.960Z,11.37
2019-05-06T07:24:27.751Z,11.07
2019-05-06T07:27:02.871Z,13.93
2019-05-06T07:29:32.747Z,9.10
2019-05-06T07:32:02.621Z,12.37
2019-05-06T07:34:32.206Z,12.80
2019-05-06T07:37:03.266Z,15.57
2019-05-06T07:39:33.293Z,10.60
2019-05-06T07:42:03.352Z,15.93
2019-05-06T07:44:36.756Z,11.80
2019-05-06T07:47:07.207Z,12.27
2019-05-06T07:49:35.970Z,10.30
2019-05-06T07:52:04.735Z,8.47
2019-05-06T07:54:33.496Z,11.33
2019-05-06T07:57:02.499Z,14.40
2019-05-06T07:59:33.254Z,8.80
2019-05-06T08:02:02.277Z,9.57
2019-05-06T08:04:32.459Z,13.13
2019-05-06T08:07:03.190Z,12.63
2019-05-06T08:09:32.602Z,7.80
2019-05-06T08:12:02.761Z,8.67
2019-05-06T08:14:43.592Z,9.87
2019-05-06T08:17:18.426Z,9.97
2019-05-06T08:19:47.207Z,8.43
2019-05-06T08:22:23.345Z,14.00
2019-05-06T08:24:53.184Z,10.67
2019-05-06T08:27:22.772Z,9.37
2019-05-06T08:29:52.625Z,8.47
2019-05-06T08:32:22.751Z,9.60
2019-05-06T08:34:52.427Z,8.67
2019-05-06T08:37:22.958Z,8.50
2019-05-06T08:39:52.698Z,6.53
2019-05-06T08:42:22.435Z,10.27
2019-05-06T08:44:53.076Z,8.30
2019-05-06T08:47:22.330Z,9.43
2019-05-06T08:50:07.683Z,5.23
2019-05-06T08:52:54.295Z,8.17
2019-05-06T08:55:27.452Z,6.90
2019-05-06T08:57:56.206Z,9.97
2019-05-06T09:00:25.066Z,6.07
2019-05-06T09:02:53.855Z,8.80
2019-05-06T09:05:22.639Z,9.43
2019-05-06T09:07:52.365Z,6.13
2019-05-06T09:10:22.703Z,5.67
2019-05-06T09:12:52.516Z,7.87
2019-05-06T09:15:21.965Z,6.13
2019-05-06T09:17:52.619Z,4.37
2019-05-06T09:20:23.266Z,4.93
2019-05-06T09:22:52.150Z,5.10
2019-05-06T09:25:22.993Z,7.33
2019-05-06T09:27:55.792Z,7.47
2019-05-06T09:30:48.465Z,3.90
2019-05-06T09:33:18.780Z,5.77
2019-05-06T09:35:47.671Z,5.33
2019-05-06T09:38:16.421Z,4.10
2019-05-06T09:40:45.213Z,2.83
2019-05-06T09:43:14.013Z,3.60
2019-05-06T09:45:42.776Z,5.03
2019-05-06T09:48:29.178Z,4.10
2019-05-06T09:50:57.864Z,3.97
2019-05-06T09:53:28.241Z,5.80
2019-05-06T09:56:04.549Z,5.50
2019-05-06T09:58:35.347Z,4.63
2019-05-06T10:01:04.593Z,6.33
2019-05-06T10:03:33.383Z,6.57
2019-05-06T10:06:02.662Z,5.83
2019-05-06T10:08:32.376Z,7.40
2019-05-06T10:11:03.188Z,6.40
2019-05-06T10:13:32.768Z,7.03
2019-05-06T10:16:02.990Z,9.97
2019-05-06T10:18:32.011Z,6.03
2019-05-06T10:21:00.756Z,7.07
2019-05-06T10:23:29.574Z,5.00
2019-05-06T10:25:58.354Z,6.00
2019-05-06T10:28:33.485Z,6.23
2019-05-06T10:31:03.832Z,7.47
2019-05-06T10:33:33.695Z,4.47
2019-05-06T10:36:04.040Z,6.43
2019-05-06T10:38:55.122Z,4.43
2019-05-06T10:41:26.818Z,6.60
2019-05-06T10:44:18.004Z,5.17
2019-05-06T10:46:46.688Z,4.13
2019-05-06T10:49:15.637Z,4.87
2019-05-06T10:51:46.043Z,4.20
2019-05-06T10:54:14.798Z,6.90
2019-05-06T10:56:57.600Z,7.13
2019-05-06T10:59:26.387Z,5.13
2019-05-06T11:01:56.839Z,4.20
2019-05-06T11:04:25.595Z,10.43
2019-05-06T11:06:54.406Z,5.47
2019-05-06T11:09:23.178Z,7.87
2019-05-06T11:11:51.977Z,4.60
2019-05-06T11:14:22.738Z,8.00
2019-05-06T11:16:51.193Z,3.40
2019-05-06T11:19:22.298Z,5.23
2019-05-06T11:21:52.926Z,5.43
2019-05-06T11:24:22.977Z,9.17
2019-05-06T11:26:53.273Z,4.43
2019-05-06T11:29:23.154Z,5.30
2019-05-06T11:32:02.447Z,3.20
2019-05-06T11:34:38.877Z,5.27
2019-05-06T11:37:25.566Z,3.50
2019-05-06T11:39:54.341Z,4.93
2019-05-06T11:42:30.947Z,7.43
2019-05-06T11:44:53.553Z,4.67
2019-05-06T11:47:23.333Z,5.83
2019-05-06T11:49:56.379Z,7.27
2019-05-06T11:52:24.288Z,5.47
2019-05-06T11:54:53.145Z,3.70
2019-05-06T11:57:23.148Z,4.30
2019-05-06T11:59:52.787Z,7.13
2019-05-06T12:02:23.455Z,6.17
2019-05-06T12:04:52.835Z,4.07
2019-05-06T12:07:24.512Z,6.20
2019-05-06T12:09:54.037Z,5.70
2019-05-06T12:12:23.263Z,6.17
2019-05-06T12:14:52.838Z,4.63
2019-05-06T12:17:22.311Z,4.77
2019-05-06T12:19:52.784Z,8.23
2019-05-06T12:22:22.254Z,7.90
2019-05-06T12:24:52.530Z,5.87
2019-05-06T12:27:39.367Z,4.37
2019-05-06T12:30:08.227Z,6.33
2019-05-06T12:32:38.656Z,6.00
2019-05-06T12:35:08.156Z,5.53
2019-05-06T12:37:38.306Z,3.60
2019-05-06T12:40:07.382Z,2.83
2019-05-06T12:42:37.831Z,4.20
2019-05-06T12:45:08.633Z,5.83
2019-05-06T12:47:39.062Z,4.77
2019-05-06T12:50:08.029Z,3.93
2019-05-06T12:52:36.767Z,7.17
2019-05-06T12:55:20.303Z,4.97
2019-05-06T12:57:37.303Z,6.00
2019-05-06T13:00:08.192Z,6.13
2019-05-06T13:02:36.921Z,4.00
2019-05-06T13:05:07.009Z,4.50
2019-05-06T13:07:37.433Z,2.83
2019-05-06T13:10:06.929Z,5.60
2019-05-06T13:12:36.531Z,3.50
2019-05-06T13:15:08.158Z,3.87
2019-05-06T13:17:37.224Z,6.73
2019-05-06T13:20:09.120Z,8.00
2019-05-06T13:22:53.442Z,6.03
2019-05-06T13:25:23.369Z,3.80
2019-05-06T13:27:52.863Z,5.03
2019-05-06T13:30:22.852Z,4.97
2019-05-06T13:32:56.052Z,4.27
2019-05-06T13:35:24.782Z,6.73
2019-05-06T13:37:53.546Z,7.53
2019-05-06T13:40:22.950Z,5.47
2019-05-06T13:43:08.942Z,5.93
2019-05-06T13:45:38.514Z,5.70
2019-05-06T13:48:08.938Z,4.10
2019-05-06T13:50:45.300Z,5.07
2019-05-06T13:53:14.804Z,7.33
2019-05-06T13:55:43.669Z,4.20
2019-05-06T13:58:12.614Z,4.00
2019-05-06T14:00:42.599Z,3.53
2019-05-06T14:03:11.500Z,5.33
2019-05-06T14:05:42.381Z,6.13
2019-05-06T14:08:12.893Z,5.60
2019-05-06T14:10:42.342Z,4.10
2019-05-06T14:13:12.876Z,4.10
2019-05-06T14:15:42.148Z,5.93
2019-05-06T14:18:13.103Z,5.43
2019-05-06T14:20:42.910Z,5.50
2019-05-06T14:23:12.900Z,7.43
2019-05-06T14:25:43.575Z,7.17
2019-05-06T14:28:13.948Z,3.87
2019-05-06T14:30:44.267Z,4.43
2019-05-06T14:33:23.818Z,3.80
2019-05-06T14:35:52.789Z,4.20
2019-05-06T14:38:24.550Z,4.13
2019-05-06T14:41:04.389Z,3.67
2019-05-06T14:43:33.009Z,3.57
2019-05-06T14:46:02.073Z,3.57
2019-05-06T14:48:32.922Z,3.30
2019-05-06T14:51:02.268Z,6.73
2019-05-06T14:53:32.994Z,5.10
2019-05-06T14:56:06.289Z,5.67
2019-05-06T14:58:35.021Z,6.93
2019-05-06T15:01:03.894Z,4.47
2019-05-06T15:03:32.754Z,4.33
2019-05-06T15:06:02.574Z,5.10
2019-05-06T15:08:32.215Z,4.37
2019-05-06T15:11:03.178Z,5.67
2019-05-06T15:13:32.255Z,7.37
2019-05-06T15:16:03.457Z,4.80
2019-05-06T15:18:32.497Z,4.37
2019-05-06T15:21:29.094Z,5.40
2019-05-06T15:23:31.752Z,6.60
2019-05-06T15:26:02.903Z,10.23
2019-05-06T15:28:33.579Z,46.50
2019-05-06T15:31:05.938Z,26.70
2019-05-06T15:33:36.282Z,24.27
2019-05-06T15:36:06.644Z,31.10
2019-05-06T15:38:35.418Z,5.20
2019-05-06T15:41:04.216Z,7.07
2019-05-06T15:43:33.430Z,6.57
2019-05-06T15:46:03.363Z,6.77
2019-05-06T15:48:33.066Z,6.73
2019-05-06T15:51:02.181Z,5.30
2019-05-06T15:53:32.843Z,6.27
2019-05-06T15:56:01.220Z,6.97
2019-05-06T15:58:32.285Z,9.07
2019-05-06T16:01:02.933Z,8.37
2019-05-06T16:03:32.829Z,9.87
2019-05-06T16:06:01.985Z,7.20
2019-05-06T16:08:32.082Z,7.13
2019-05-06T16:11:02.868Z,6.97
2019-05-06T16:13:31.428Z,5.80
2019-05-06T16:16:02.762Z,8.40
2019-05-06T16:18:32.578Z,5.73
2019-05-06T16:21:02.930Z,8.53
2019-05-06T16:23:33.224Z,5.73
2019-05-06T16:26:02.988Z,9.20
2019-05-06T16:28:32.098Z,6.30
2019-05-06T16:31:02.459Z,6.67
2019-05-06T16:33:32.593Z,7.57
2019-05-06T16:36:01.832Z,6.10
2019-05-06T16:38:32.303Z,6.43
2019-05-06T16:41:10.314Z,6.23
2019-05-06T16:43:33.674Z,10.20
2019-05-06T16:46:03.291Z,11.70
2019-05-06T16:48:32.183Z,10.07
2019-05-06T16:51:04.595Z,7.20
2019-05-06T16:53:34.479Z,9.30
2019-05-06T16:56:03.467Z,6.20
2019-05-06T16:58:49.833Z,6.40
2019-05-06T17:01:18.679Z,8.57
2019-05-06T17:03:49.116Z,6.83
2019-05-06T17:06:32.961Z,6.93
2019-05-06T17:09:16.782Z,7.07
2019-05-06T17:11:34.692Z,8.40
2019-05-06T17:14:04.139Z,6.77
2019-05-06T17:16:33.992Z,8.33
2019-05-06T17:19:04.469Z,10.07
2019-05-06T17:21:33.764Z,8.23
2019-05-06T17:24:04.532Z,7.33
2019-05-06T17:26:33.954Z,8.90
2019-05-06T17:29:22.839Z,8.57
2019-05-06T17:32:02.678Z,10.73
2019-05-06T17:34:33.268Z,6.90
2019-05-06T17:37:20.212Z,5.57
2019-05-06T17:40:04.468Z,4.73
2019-05-06T17:42:22.547Z,5.23
2019-05-06T17:44:50.727Z,5.20
2019-05-06T17:47:32.088Z,8.93
2019-05-06T17:50:02.872Z,5.50
2019-05-06T17:52:33.414Z,6.10
2019-05-06T17:55:02.958Z,7.60
2019-05-06T17:57:33.169Z,7.37
2019-05-06T18:00:03.277Z,6.57
2019-05-06T18:02:33.057Z,6.07
2019-05-06T18:05:02.849Z,6.33
2019-05-06T18:07:32.709Z,5.67
2019-05-06T18:10:03.068Z,5.83
2019-05-06T18:12:32.849Z,6.07
2019-05-06T18:15:02.761Z,6.30
2019-05-06T18:17:33.178Z,7.73
2019-05-06T18:20:03.094Z,7.73
2019-05-06T18:22:32.772Z,6.70
2019-05-06T18:25:02.367Z,7.67
2019-05-06T18:27:32.225Z,13.10
2019-05-06T18:30:13.371Z,7.97
2019-05-06T18:32:33.941Z,10.37
2019-05-06T18:35:03.091Z,11.30
2019-05-06T18:37:33.244Z,9.73
2019-05-06T18:40:02.729Z,11.23
2019-05-06T18:42:33.005Z,10.23
2019-05-06T18:45:02.858Z,10.87
2019-05-06T18:47:33.047Z,9.77
2019-05-06T18:50:02.530Z,15.20
2019-05-06T18:52:32.264Z,8.60
2019-05-06T18:55:01.842Z,10.53
2019-05-06T18:57:32.478Z,8.93
2019-05-06T19:00:03.131Z,8.07
2019-05-06T19:02:32.548Z,10.37
2019-05-06T19:05:06.134Z,8.43
2019-05-06T19:07:35.129Z,9.13
2019-05-06T19:10:06.033Z,11.27
2019-05-06T19:12:40.410Z,8.63
2019-05-06T19:15:07.016Z,9.27
2019-05-06T19:17:36.123Z,7.80
2019-05-06T19:20:07.477Z,7.67
2019-05-06T19:22:36.285Z,7.53
2019-05-06T19:25:05.993Z,7.90
2019-05-06T19:27:34.724Z,8.50
2019-05-06T19:30:05.049Z,10.60
2019-05-06T19:32:35.238Z,11.73
2019-05-06T19:35:04.817Z,11.10
2019-05-06T19:37:33.562Z,9.57
2019-05-06T19:40:03.030Z,10.80
2019-05-06T19:42:43.658Z,10.17
2019-05-06T19:45:02.641Z,9.53
2019-05-06T19:47:31.922Z,9.33
2019-05-06T19:50:02.831Z,10.47
2019-05-06T19:52:32.673Z,9.80
2019-05-06T19:55:03.134Z,11.33
2019-05-06T19:57:32.356Z,13.03
2019-05-06T20:00:03.300Z,14.67
2019-05-06T20:02:32.069Z,11.10
2019-05-06T20:05:03.192Z,9.77
2019-05-06T20:07:42.879Z,9.87
2019-05-06T20:10:19.471Z,9.30
2019-05-06T20:13:01.095Z,10.53
2019-05-06T20:15:33.605Z,12.80
2019-05-06T20:18:03.171Z,10.53
2019-05-06T20:20:34.843Z,10.53
2019-05-06T20:23:02.797Z,10.27
2019-05-06T20:25:31.769Z,11.47
2019-05-06T20:28:02.367Z,11.70
2019-05-06T20:30:32.698Z,11.30
2019-05-06T20:33:01.626Z,11.73
2019-05-06T20:35:32.197Z,11.83
2019-05-06T20:38:02.620Z,11.20
2019-05-06T20:40:32.767Z,9.83
2019-05-06T20:43:14.142Z,13.30
2019-05-06T20:45:34.824Z,11.53
2019-05-06T20:48:03.197Z,13.83
2019-05-06T20:50:32.258Z,13.60
2019-05-06T20:53:01.174Z,11.67
2019-05-06T20:55:33.281Z,11.80
2019-05-06T20:58:02.727Z,12.30
2019-05-06T21:00:33.288Z,12.53
2019-05-06T21:03:01.440Z,14.87
2019-05-06T21:05:32.209Z,13.10
2019-05-06T21:08:02.215Z,15.43
2019-05-06T21:10:32.984Z,15.60
2019-05-06T21:13:02.312Z,15.33
2019-05-06T21:15:32.349Z,15.63
2019-05-06T21:18:04.154Z,15.67
2019-05-06T21:20:33.047Z,16.77
2019-05-06T21:23:02.345Z,14.90
2019-05-06T21:25:32.135Z,16.37
2019-05-06T21:28:02.917Z,16.93
2019-05-06T21:30:32.370Z,16.43
2019-05-06T21:33:01.225Z,16.27
2019-05-06T21:35:29.944Z,17.67
2019-05-06T21:37:58.752Z,17.13
2019-05-06T21:40:27.541Z,16.10
2019-05-06T21:42:56.169Z,16.53
2019-05-06T21:45:24.926Z,15.27
2019-05-06T21:47:53.672Z,17.80
2019-05-06T21:50:22.876Z,17.40
2019-05-06T21:52:51.579Z,15.07
2019-05-06T21:55:22.554Z,18.43
2019-05-06T21:57:52.794Z,16.50
2019-05-06T22:00:23.453Z,13.53
2019-05-06T22:02:52.960Z,15.60
2019-05-06T22:05:22.620Z,16.53
2019-05-06T22:07:52.571Z,15.60
2019-05-06T22:10:22.779Z,17.60
2019-05-06T22:12:52.729Z,15.03
2019-05-06T22:15:22.752Z,14.97
2019-05-06T22:17:54.284Z,18.47
2019-05-06T22:20:23.743Z,17.87
2019-05-06T22:22:52.418Z,14.73
2019-05-06T22:25:22.085Z,13.23
2019-05-06T22:27:51.956Z,14.60
2019-05-06T22:30:23.670Z,15.60
2019-05-06T22:32:52.697Z,14.67
2019-05-06T22:35:23.078Z,17.43
2019-05-06T22:37:52.919Z,17.73
2019-05-06T22:40:23.799Z,16.93
2019-05-06T22:42:52.760Z,14.67
2019-05-06T22:45:22.327Z,16.37
2019-05-06T22:47:51.062Z,15.47
2019-05-06T22:50:19.852Z,18.00
2019-05-06T22:52:48.685Z,16.30
2019-05-06T22:55:17.400Z,14.67
2019-05-06T22:57:46.109Z,15.47
2019-05-06T23:00:22.406Z,15.13
2019-05-06T23:02:58.196Z,15.60
2019-05-06T23:05:26.946Z,12.67
2019-05-06T23:07:55.796Z,14.57
2019-05-06T23:10:24.848Z,14.17
2019-05-06T23:12:53.760Z,14.33
2019-05-06T23:15:22.524Z,14.17
2019-05-06T23:17:52.732Z,14.23
2019-05-06T23:20:24.245Z,13.87
2019-05-06T23:22:51.855Z,13.47
2019-05-06T23:25:22.066Z,14.73
2019-05-06T23:27:52.988Z,14.10
2019-05-06T23:30:23.451Z,15.83
2019-05-06T23:32:52.987Z,15.17
2019-05-06T23:35:22.070Z,16.20
2019-05-06T23:38:26.565Z,15.10
2019-05-06T23:41:32.703Z,15.17
2019-05-06T23:44:45.597Z,14.67
2019-05-06T23:47:43.600Z,17.20
2019-05-06T23:50:48.020Z,16.80
2019-05-06T23:53:52.446Z,19.67
2019-05-06T23:56:44.708Z,20.63
2019-05-06T23:59:17.972Z,19.60
